Time;durP1;ratioP1;P1;durP2;ratioP2;P2;SDS_P1;SDS_P2;PMS_P1;PMS_P2;Temp;Humidity;BMP_temperature;BMP_pressure;BME280_temperature;BME280_humidity;BME280_pressure;Samples;Min_cycle;Max_cycle;Signal;HPM_P1;HPM_P2
2023/01/04 01:21:03;;;;;;;4.65;1.02;;;12.90;99.90;;;;;;4816798;29;20064;-80
2023/01/04 01:23:28;;;;;;;3.78;1.00;;;13.00;99.90;;;;;;4919752;29;20155;-82
2023/01/04 01:26:02;;;;;;;3.47;1.02;;;13.00;99.90;;;;;;4968386;28;20035;-82
2023/01/04 01:28:35;;;;;;;2.90;0.85;;;13.00;99.90;;;;;;5020747;28;20027;-82
2023/01/04 01:31:57;;;;;;;;;;;;;;;;;;;;;
2023/01/04 02:00:14;;;;;;;;;;;;;;;;;;;;;
2023/01/04 02:14:39;;;;;;;;;;;;;;;;;;;;;
2023/01/04 02:17:48;;;;;;;;;;;;;;;;;;;;;
2023/01/04 07:05:31;;;;;;;;;;;;;;;;;;;;;
2023/01/04 07:08:33;;;;;;;;;;;;;;;;;;;;;
2023/01/04 07:47:30;;;;;;;;;;;;;;;;;;;;;
2023/01/04 07:50:08;;;;;;;4.80;1.10;;;13.50;99.90;;;;;;6343220;22;20073;-82
2023/01/04 07:52:56;;;;;;;8.18;1.65;;;13.50;99.90;;;;;;6314804;22;20086;-85
2023/01/04 07:59:43;;;;;;;5.47;1.20;;;13.50;99.90;;;;;;6216902;23;20012;-82
2023/01/04 08:02:10;;;;;;;3.22;0.88;;;13.50;99.90;;;;;;6217365;23;20338;-68
2023/01/04 08:04:36;;;;;;;8.27;1.27;;;13.60;99.90;;;;;;6215670;23;20126;-68
2023/01/04 08:07:02;;;;;;;5.30;0.90;;;13.60;99.90;;;;;;6262929;22;20003;-70
2023/01/04 08:09:28;;;;;;;2.90;0.88;;;13.60;99.90;;;;;;6343218;22;20423;-67
2023/01/04 08:11:53;;;;;;;2.75;0.60;;;13.60;99.90;;;;;;6343211;22;20089;-67
2023/01/04 08:14:19;;;;;;;3.05;0.85;;;13.60;99.90;;;;;;6343635;22;20002;-67
2023/01/04 08:16:45;;;;;;;2.60;0.68;;;13.60;99.90;;;;;;6343382;22;20006;-67
2023/01/04 08:19:16;;;;;;;2.45;0.90;;;13.60;99.90;;;;;;6343364;22;20050;-67
2023/01/04 08:21:42;;;;;;;3.45;0.93;;;13.60;99.90;;;;;;6343673;22;19995;-67
2023/01/04 08:24:12;;;;;;;3.35;0.63;;;13.60;99.90;;;;;;6343161;22;19995;-67
2023/01/04 08:26:38;;;;;;;3.92;1.10;;;13.60;99.90;;;;;;6343248;22;20022;-69
2023/01/04 08:29:04;;;;;;;3.50;0.75;;;13.60;99.90;;;;;;6315522;22;20011;-69
2023/01/04 08:31:31;;;;;;;1.80;0.63;;;13.60;99.90;;;;;;6315491;22;20018;-66
2023/01/04 08:34:00;;;;;;;2.53;0.50;;;13.50;99.90;;;;;;6338712;22;20023;-68
2023/01/04 08:36:30;;;;;;;2.70;0.47;;;13.60;99.90;;;;;;6313887;22;20006;-68
2023/01/04 08:39:02;;;;;;;3.53;0.65;;;13.50;99.90;;;;;;6341326;22;19998;-68
2023/01/04 08:41:29;;;;;;;1.55;0.57;;;13.50;99.90;;;;;;6343199;22;20496;-68
2023/01/04 08:43:55;;;;;;;3.83;0.80;;;13.50;99.90;;;;;;6342860;22;20007;-68
2023/01/04 08:46:21;;;;;;;2.50;0.63;;;13.50;99.90;;;;;;6343374;22;20439;-68
2023/01/04 08:48:46;;;;;;;3.75;0.60;;;13.50;99.90;;;;;;6315473;22;20006;-68
2023/01/04 08:51:13;;;;;;;4.18;0.63;;;13.50;99.90;;;;;;6314928;22;20003;-68
2023/01/04 08:53:39;;;;;;;2.13;0.80;;;13.50;99.90;;;;;;6343057;22;20003;-68
2023/01/04 08:56:06;;;;;;;2.95;0.60;;;13.50;99.90;;;;;;6343142;22;20087;-68
2023/01/04 08:58:34;;;;;;;1.42;0.32;;;13.50;99.90;;;;;;6342966;22;20398;-68
2023/01/04 09:01:05;;;;;;;1.92;0.50;;;13.50;99.90;;;;;;6343188;22;20451;-68
2023/01/04 09:03:31;;;;;;;2.05;0.40;;;13.50;99.90;;;;;;6314669;22;20006;-68
2023/01/04 09:06:06;;;;;;;2.10;0.68;;;13.50;99.90;;;;;;6343356;22;19999;-68
2023/01/04 09:08:33;;;;;;;1.67;0.52;;;13.50;99.90;;;;;;6317102;22;20029;-68
2023/01/04 09:11:09;;;;;;;0.93;0.50;;;13.50;99.90;;;;;;6345052;22;19999;-68
2023/01/04 09:13:36;;;;;;;2.33;0.50;;;13.50;99.90;;;;;;6344862;22;20003;-68
2023/01/04 09:16:03;;;;;;;1.73;0.50;;;13.60;99.90;;;;;;6344654;22;20003;-69
2023/01/04 09:18:29;;;;;;;2.22;0.60;;;13.60;99.90;;;;;;6316082;22;20484;-68
2023/01/04 09:20:55;;;;;;;1.83;0.70;;;13.60;99.90;;;;;;6312464;22;20052;-68
2023/01/04 09:23:22;;;;;;;2.92;0.52;;;13.70;99.90;;;;;;6316087;22;20003;-68
2023/01/04 09:25:48;;;;;;;1.65;0.47;;;13.70;99.90;;;;;;6342484;22;20082;-68
2023/01/04 09:28:13;;;;;;;1.38;0.50;;;13.70;99.90;;;;;;6315183;22;20013;-68
2023/01/04 09:30:39;;;;;;;1.67;0.60;;;13.80;99.90;;;;;;6343656;22;20496;-68
2023/01/04 09:33:05;;;;;;;2.15;0.68;;;13.80;99.90;;;;;;6315983;22;20006;-68
2023/01/04 09:35:31;;;;;;;1.42;0.55;;;13.80;99.90;;;;;;6343797;22;19995;-70
2023/01/04 09:37:57;;;;;;;1.30;0.52;;;13.80;99.90;;;;;;6316989;22;20056;-70
2023/01/04 09:40:30;;;;;;;1.17;0.50;;;13.80;99.90;;;;;;6317206;22;19999;-69
2023/01/04 09:42:57;;;;;;;1.85;0.50;;;13.80;99.90;;;;;;6344673;22;20018;-70
2023/01/04 09:45:27;;;;;;;2.45;0.60;;;13.80;99.90;;;;;;6344762;22;19995;-67
2023/01/04 09:47:59;;;;;;;1.30;0.50;;;13.80;99.90;;;;;;6344806;22;19999;-70
2023/01/04 09:51:08;;;;;;;2.58;0.65;;;13.80;99.90;;;;;;6344424;22;20003;-70
2023/01/04 09:53:42;;;;;;;2.75;0.60;;;13.80;99.90;;;;;;6188657;23;20009;-70
2023/01/04 09:56:15;;;;;;;1.77;0.47;;;13.90;99.90;;;;;;6293169;22;20003;-70
2023/01/04 09:58:42;;;;;;;2.13;0.60;;;13.90;99.90;;;;;;6316758;22;20002;-69
2023/01/04 10:01:17;;;;;;;2.00;0.60;;;13.90;99.90;;;;;;6344720;22;20002;-70
2023/01/04 10:03:58;;;;;;;2.75;0.93;;;14.00;99.90;;;;;;6345171;22;20012;-67
2023/01/04 10:06:24;;;;;;;1.73;0.45;;;14.00;99.90;;;;;;6344345;22;19999;-69
2023/01/04 10:08:50;;;;;;;2.25;0.65;;;14.00;99.90;;;;;;6344807;22;20077;-69
2023/01/04 10:11:34;;;;;;;3.50;0.57;;;14.10;99.90;;;;;;6344837;22;20019;-70
2023/01/04 10:14:24;;;;;;;2.95;0.75;;;14.10;99.90;;;;;;6344907;22;20065;-70
2023/01/04 10:17:12;;;;;;;2.03;0.80;;;14.10;99.90;;;;;;6314435;22;20010;-70
2023/01/04 10:19:41;;;;;;;1.88;0.65;;;14.10;99.90;;;;;;6343390;22;20009;-69
2023/01/04 10:22:29;;;;;;;3.58;0.70;;;14.20;99.90;;;;;;6341411;22;20432;-69
2023/01/04 10:25:26;;;;;;;2.95;0.90;;;14.20;99.90;;;;;;6267712;22;20003;-69
2023/01/04 10:27:55;;;;;;;5.00;1.35;;;14.20;99.90;;;;;;6335910;22;20074;-70
2023/01/04 10:30:43;;;;;;;2.55;0.77;;;14.20;99.90;;;;;;6344152;22;20006;-70
2023/01/04 10:33:19;;;;;;;3.75;0.80;;;14.20;99.90;;;;;;6342640;22;20003;-69
2023/01/04 10:35:46;;;;;;;2.10;0.73;;;14.20;99.90;;;;;;6344023;22;20006;-70
2023/01/04 10:38:22;;;;;;;3.38;0.95;;;14.20;99.90;;;;;;6316343;22;20010;-69
2023/01/04 10:40:47;;;;;;;2.58;0.60;;;14.30;99.90;;;;;;6344089;22;20423;-70
2023/01/04 10:43:40;;;;;;;7.80;1.40;;;14.20;99.90;;;;;;6344026;22;20014;-68
2023/01/04 10:46:13;;;;;;;3.75;0.75;;;14.20;99.90;;;;;;6316282;22;20077;-70
2023/01/04 10:48:47;;;;;;;3.40;0.70;;;14.30;99.90;;;;;;6343907;22;20038;-70
2023/01/04 10:51:18;;;;;;;3.45;0.93;;;14.30;99.90;;;;;;6316352;22;20086;-70
2023/01/04 10:54:02;;;;;;;4.57;0.80;;;14.30;99.90;;;;;;6343798;22;20029;-70
2023/01/04 10:57:08;;;;;;;2.97;0.70;;;14.30;99.90;;;;;;6316506;22;20029;-70
2023/01/04 10:59:45;;;;;;;4.25;1.00;;;14.30;99.90;;;;;;6288088;22;20011;-70
2023/01/04 11:02:36;;;;;;;2.92;0.73;;;14.30;99.90;;;;;;6344740;22;20037;-68
2023/01/04 11:05:23;;;;;;;3.72;0.70;;;14.30;99.90;;;;;;6316076;22;20006;-69
2023/01/04 11:07:48;;;;;;;2.95;0.80;;;14.30;99.90;;;;;;6344339;22;20005;-69
2023/01/04 11:10:34;;;;;;;2.85;0.70;;;14.30;99.90;;;;;;6315097;22;20414;-70
2023/01/04 11:13:01;;;;;;;2.55;0.60;;;14.30;99.90;;;;;;6343201;22;19999;-68
2023/01/04 11:15:28;;;;;;;4.25;0.98;;;14.30;99.90;;;;;;6343202;22;20002;-69
2023/01/04 11:17:54;;;;;;;2.70;1.00;;;14.30;99.90;;;;;;6342982;22;20002;-69
2023/01/04 11:20:19;;;;;;;4.63;0.98;;;14.30;99.90;;;;;;6315226;22;20797;-70
2023/01/04 11:23:00;;;;;;;2.55;0.60;;;14.30;99.90;;;;;;6343216;22;19995;-69
2023/01/04 11:25:30;;;;;;;2.60;0.77;;;14.30;99.90;;;;;;6343111;22;20372;-69
2023/01/04 11:28:20;;;;;;;4.93;0.98;;;14.30;99.90;;;;;;6315631;22;20049;-69
2023/01/04 11:31:02;;;;;;;2.50;0.73;;;14.30;99.90;;;;;;6315880;22;20023;-69
2023/01/04 11:33:28;;;;;;;1.65;0.50;;;14.30;99.90;;;;;;6343894;22;19995;-69
2023/01/04 11:35:57;;;;;;;2.17;0.70;;;14.30;99.90;;;;;;6343363;22;20358;-69
2023/01/04 11:38:27;;;;;;;2.47;0.60;;;14.30;99.90;;;;;;6343832;22;20003;-69
2023/01/04 11:41:04;;;;;;;1.85;0.50;;;14.30;99.90;;;;;;6343743;22;20002;-69
2023/01/04 11:43:35;;;;;;;1.33;0.70;;;14.30;99.90;;;;;;6343801;22;20018;-69
2023/01/04 11:46:23;;;;;;;3.42;0.60;;;14.40;99.90;;;;;;6343681;22;20026;-69
2023/01/04 11:48:49;;;;;;;2.20;0.75;;;14.40;99.90;;;;;;6315748;22;20007;-69
2023/01/04 11:51:30;;;;;;;1.92;0.63;;;14.40;99.90;;;;;;6343502;22;20461;-69
2023/01/04 11:53:58;;;;;;;2.40;0.68;;;14.40;99.90;;;;;;6341253;22;20026;-69
2023/01/04 11:56:28;;;;;;;1.35;0.60;;;14.40;99.90;;;;;;6315671;22;20007;-69
2023/01/04 11:59:13;;;;;;;2.35;0.70;;;14.40;99.90;;;;;;6343312;22;19999;-69
2023/01/04 12:01:44;;;;;;;0.70;0.50;;;14.40;99.90;;;;;;6343460;22;20001;-69
2023/01/04 12:04:36;;;;;;;1.58;0.60;;;14.40;99.90;;;;;;6343081;22;20003;-69
2023/01/04 12:07:27;;;;;;;3.70;0.75;;;14.40;99.90;;;;;;6336148;22;20014;-69
2023/01/04 12:09:53;;;;;;;2.50;0.68;;;14.40;99.90;;;;;;6326000;22;20007;-69
2023/01/04 12:12:19;;;;;;;1.98;0.63;;;14.30;99.90;;;;;;6343535;22;20009;-69
2023/01/04 12:14:49;;;;;;;1.67;0.47;;;14.30;99.90;;;;;;6315687;22;20063;-69
2023/01/04 12:17:37;;;;;;;2.88;0.60;;;14.30;99.90;;;;;;6343279;22;20007;-68
2023/01/04 12:20:16;;;;;;;1.05;0.50;;;14.30;99.90;;;;;;6314740;22;20014;-68
2023/01/04 12:22:42;;;;;;;1.90;0.77;;;14.30;99.90;;;;;;6342464;22;20044;-68
2023/01/04 12:25:44;;;;;;;1.80;0.57;;;14.30;99.90;;;;;;6315291;22;20048;-68
2023/01/04 12:28:36;;;;;;;2.10;0.50;;;14.30;99.90;;;;;;6263000;22;20423;-68
2023/01/04 12:31:20;;;;;;;1.30;0.45;;;14.30;99.90;;;;;;6315737;22;20010;-68
2023/01/04 12:33:54;;;;;;;2.42;0.63;;;14.30;99.90;;;;;;6343199;22;20439;-71
2023/01/04 12:36:40;;;;;;;2.28;0.32;;;14.30;99.90;;;;;;6340423;22;20435;-71
2023/01/04 12:39:15;;;;;;;1.27;0.43;;;14.30;99.90;;;;;;6340814;22;20504;-71
2023/01/04 12:41:40;;;;;;;1.02;0.32;;;14.30;99.90;;;;;;6344963;22;19999;-71
2023/01/04 12:44:45;;;;;;;1.52;0.55;;;14.30;99.90;;;;;;6344920;22;20067;-71
2023/01/04 12:50:12;;;;;;;1.13;0.50;;;14.40;99.90;;;;;;6345211;22;20017;-70
2023/01/04 12:52:45;;;;;;;0.93;0.47;;;14.40;99.90;;;;;;6345052;22;19999;-70
2023/01/04 12:55:32;;;;;;;1.70;0.47;;;14.40;99.90;;;;;;6345155;22;19999;-70
2023/01/04 12:57:58;;;;;;;1.30;0.30;;;14.50;99.90;;;;;;6345481;22;20003;-69
2023/01/04 13:00:49;;;;;;;0.98;0.50;;;14.50;99.90;;;;;;6317472;22;20003;-70
2023/01/04 13:03:14;;;;;;;1.63;0.50;;;14.50;99.90;;;;;;6345034;22;20419;-70
2023/01/04 13:06:01;;;;;;;1.73;0.40;;;14.50;99.90;;;;;;6314214;22;20025;-70
2023/01/04 13:08:32;;;;;;;0.88;0.45;;;14.50;99.90;;;;;;6316134;22;20002;-69
2023/01/04 13:10:59;;;;;;;0.77;0.43;;;14.60;99.90;;;;;;6316248;22;20060;-70
2023/01/04 13:13:41;;;;;;;1.23;0.40;;;14.60;99.90;;;;;;6343582;22;20320;-69
2023/01/04 13:16:16;;;;;;;0.60;0.40;;;14.60;99.90;;;;;;6343593;22;20006;-70
2023/01/04 13:18:44;;;;;;;1.73;0.40;;;14.60;99.90;;;;;;6341504;22;19999;-70
2023/01/04 13:21:14;;;;;;;0.68;0.30;;;14.60;99.90;;;;;;6343453;22;20025;-69
2023/01/04 13:23:50;;;;;;;0.82;0.40;;;14.60;99.90;;;;;;6344141;22;20093;-70
2023/01/04 13:26:41;;;;;;;1.00;0.30;;;14.60;99.90;;;;;;6316101;22;20009;-70
2023/01/04 13:29:22;;;;;;;0.95;0.30;;;14.70;99.90;;;;;;6322476;22;20010;-70
2023/01/04 13:31:55;;;;;;;0.63;0.30;;;14.70;99.90;;;;;;6343841;22;19999;-69
2023/01/04 13:34:23;;;;;;;0.82;0.20;;;14.70;99.90;;;;;;6343223;22;20541;-70
2023/01/04 13:37:16;;;;;;;1.77;0.35;;;14.60;99.90;;;;;;6316070;22;20006;-70
2023/01/04 13:39:59;;;;;;;1.17;0.30;;;14.70;99.90;;;;;;6340031;22;20008;-70
2023/01/04 13:42:29;;;;;;;;;;;14.60;99.90;;;;;;6343399;22;20018;-70
2023/01/04 13:45:23;;;;;;;1.45;0.30;;;14.60;99.90;;;;;;6315726;22;19906;-70
2023/01/04 13:47:56;;;;;;;1.85;0.40;;;14.70;99.90;;;;;;6343534;22;20048;-69
2023/01/04 13:50:35;;;;;;;0.35;0.20;;;14.70;99.90;;;;;;6343162;22;20359;-70
2023/01/04 13:53:01;;;;;;;1.38;0.30;;;14.60;99.90;;;;;;6315084;22;20029;-70
2023/01/04 13:55:30;;;;;;;0.52;0.20;;;14.70;99.90;;;;;;6343485;22;20031;-70
2023/01/04 13:57:59;;;;;;;0.70;0.30;;;14.70;99.90;;;;;;6343473;22;20010;-69
2023/01/04 14:00:33;;;;;;;1.13;0.30;;;14.70;99.90;;;;;;6343056;22;20076;-70
2023/01/04 14:03:20;;;;;;;1.38;0.40;;;14.60;99.90;;;;;;6342640;22;19995;-70
2023/01/04 14:05:50;;;;;;;0.82;0.30;;;14.70;99.90;;;;;;6343299;22;20022;-69
2023/01/04 14:08:39;;;;;;;0.80;0.40;;;14.60;99.90;;;;;;6343204;22;19999;-69
2023/01/04 14:11:57;;;;;;;1.10;0.32;;;14.60;99.90;;;;;;6341602;22;20474;-69
2023/01/04 14:14:15;;;;;;;0.85;0.40;;;14.60;99.90;;;;;;6342720;22;20045;-69
2023/01/04 14:16:41;;;;;;;2.08;0.43;;;14.60;99.90;;;;;;6315395;22;20002;-70
2023/01/04 14:19:32;;;;;;;1.08;0.40;;;14.60;99.90;;;;;;6315873;22;20506;-69
2023/01/04 14:21:58;;;;;;;2.25;0.55;;;14.60;99.90;;;;;;6343597;22;19995;-70
2023/01/04 14:24:33;;;;;;;0.70;0.30;;;14.60;99.90;;;;;;6344207;22;20332;-70
2023/01/04 14:26:59;;;;;;;1.92;0.50;;;14.60;99.90;;;;;;6316196;22;20070;-70
2023/01/04 14:29:30;;;;;;;1.00;0.30;;;14.60;99.90;;;;;;6342939;22;20056;-70
2023/01/04 14:31:56;;;;;;;1.88;0.40;;;14.60;99.90;;;;;;6336359;22;20003;-69
2023/01/04 14:34:22;;;;;;;0.70;0.30;;;14.60;99.90;;;;;;6342171;22;19998;-70
2023/01/04 14:36:47;;;;;;;0.85;0.40;;;14.60;99.90;;;;;;6342712;22;19999;-69
2023/01/04 14:39:21;;;;;;;1.98;0.60;;;14.50;99.90;;;;;;6340852;22;20399;-70
2023/01/04 14:41:50;;;;;;;0.90;0.40;;;14.60;99.90;;;;;;6343663;22;19995;-72
2023/01/04 14:44:35;;;;;;;0.80;0.30;;;14.60;99.90;;;;;;6342828;22;20021;-71
2023/01/04 14:47:04;;;;;;;2.90;0.50;;;14.60;99.90;;;;;;6314309;22;20077;-71
2023/01/04 14:49:30;;;;;;;1.63;0.40;;;14.60;99.90;;;;;;6343037;22;20086;-71
2023/01/04 14:52:02;;;;;;;1.50;0.65;;;14.70;99.90;;;;;;6343570;22;20006;-71
2023/01/04 14:54:29;;;;;;;1.23;0.40;;;14.60;99.90;;;;;;6341888;22;20002;-70
2023/01/04 14:56:56;;;;;;;1.60;0.50;;;14.70;99.90;;;;;;6315262;22;20033;-71
2023/01/04 14:59:22;;;;;;;0.50;0.25;;;14.70;99.90;;;;;;6342645;22;20077;-69
2023/01/04 15:01:50;;;;;;;1.88;0.28;;;14.60;99.90;;;;;;6342479;22;19995;-71
2023/01/04 15:04:15;;;;;;;0.68;0.30;;;14.60;99.90;;;;;;6342319;22;20018;-71
2023/01/04 15:07:26;;;;;;;1.48;0.40;;;14.60;99.90;;;;;;6342723;22;20006;-71
2023/01/04 15:09:52;;;;;;;1.13;0.40;;;14.70;99.90;;;;;;6343080;22;20005;-71
2023/01/04 15:12:17;;;;;;;1.70;0.63;;;14.70;99.90;;;;;;6315951;22;20062;-71
2023/01/04 15:14:43;;;;;;;0.45;0.30;;;14.70;99.90;;;;;;6343722;22;20002;-71
2023/01/04 15:17:09;;;;;;;1.35;0.40;;;14.70;99.90;;;;;;6343775;22;20003;-71
2023/01/04 15:19:34;;;;;;;0.70;0.28;;;14.60;99.90;;;;;;6315837;22;20011;-71
2023/01/04 15:22:00;;;;;;;0.90;0.40;;;14.60;99.90;;;;;;6315772;22;20006;-70
2023/01/04 15:24:25;;;;;;;1.15;0.30;;;14.60;99.90;;;;;;6343682;22;19999;-71
2023/01/04 15:26:51;;;;;;;0.50;0.22;;;14.60;99.90;;;;;;6343755;22;20005;-71
2023/01/04 15:29:17;;;;;;;0.93;0.40;;;14.60;99.90;;;;;;6344026;22;20374;-71
2023/01/04 15:31:43;;;;;;;1.05;0.43;;;14.60;99.90;;;;;;6342906;22;20003;-70
2023/01/04 15:34:09;;;;;;;1.85;0.40;;;14.60;99.90;;;;;;6314193;22;20002;-72
2023/01/04 15:36:37;;;;;;;0.70;0.45;;;14.60;99.90;;;;;;6341689;22;20435;-71
2023/01/04 15:39:03;;;;;;;1.25;0.28;;;14.50;99.90;;;;;;6343165;22;20006;-71
2023/01/04 15:44:13;;;;;;;0.95;0.50;;;14.60;99.90;;;;;;6343218;22;20025;-70
2023/01/04 15:46:39;;;;;;;0.68;0.30;;;14.50;99.90;;;;;;6343167;22;19999;-72
2023/01/04 15:49:05;;;;;;;1.17;0.40;;;14.50;99.90;;;;;;6315143;22;20443;-71
2023/01/04 15:51:31;;;;;;;1.10;0.50;;;14.50;99.90;;;;;;6343393;22;20340;-72
2023/01/04 15:53:56;;;;;;;0.82;0.30;;;14.50;99.90;;;;;;6342169;22;20002;-72
2023/01/04 15:56:22;;;;;;;1.55;0.40;;;14.50;99.90;;;;;;6314939;22;20052;-72
2023/01/04 15:58:53;;;;;;;1.67;0.50;;;14.50;99.90;;;;;;6315374;22;20089;-72
2023/01/04 16:01:19;;;;;;;0.98;0.30;;;14.50;99.90;;;;;;6315164;22;20010;-72
2023/01/04 16:03:45;;;;;;;2.25;0.50;;;14.50;99.90;;;;;;6343521;22;20002;-72
2023/01/04 16:06:14;;;;;;;1.30;0.40;;;14.40;99.90;;;;;;6340804;22;20436;-72
2023/01/04 16:08:40;;;;;;;0.57;0.40;;;14.40;99.90;;;;;;6340129;22;20002;-71
2023/01/04 16:11:14;;;;;;;1.63;0.45;;;14.40;99.90;;;;;;6342249;22;20027;-72
2023/01/04 16:13:41;;;;;;;1.55;0.50;;;14.40;99.90;;;;;;6340936;22;20470;-72
2023/01/04 16:16:08;;;;;;;1.95;0.38;;;14.40;99.90;;;;;;6341589;22;20017;-72
2023/01/04 16:18:33;;;;;;;1.48;0.55;;;14.40;99.90;;;;;;6313654;22;20010;-72
2023/01/04 16:20:59;;;;;;;2.58;0.50;;;14.40;99.90;;;;;;6314503;22;20035;-71
2023/01/04 16:23:26;;;;;;;1.10;0.45;;;14.40;99.90;;;;;;6342344;22;20443;-72
2023/01/04 16:26:05;;;;;;;1.48;0.40;;;14.40;99.90;;;;;;6314681;22;20089;-72
2023/01/04 16:28:31;;;;;;;0.85;0.50;;;14.40;99.90;;;;;;6342267;22;20491;-72
2023/01/04 16:30:57;;;;;;;0.50;0.32;;;14.40;99.90;;;;;;6341903;22;20064;-70
2023/01/04 16:33:22;;;;;;;0.47;0.35;;;14.40;99.90;;;;;;6342565;22;19998;-71
2023/01/04 16:35:48;;;;;;;1.25;0.57;;;14.40;99.90;;;;;;6341524;22;19999;-73
2023/01/04 16:38:14;;;;;;;2.38;0.52;;;14.40;99.90;;;;;;6342459;22;20010;-72
2023/01/04 16:40:39;;;;;;;1.30;0.60;;;14.40;99.90;;;;;;6315078;22;20025;-71
2023/01/04 16:43:05;;;;;;;0.98;0.55;;;14.30;99.90;;;;;;6342433;22;20019;-71
2023/01/04 16:45:31;;;;;;;0.80;0.40;;;14.30;99.90;;;;;;6342540;22;19995;-72
2023/01/04 16:47:58;;;;;;;2.13;0.50;;;14.20;99.90;;;;;;6342029;22;20385;-71
2023/01/04 16:50:24;;;;;;;4.25;0.85;;;14.10;99.90;;;;;;6342447;22;20003;-71
2023/01/04 16:52:49;;;;;;;1.02;0.40;;;14.10;99.90;;;;;;6342595;22;20056;-71
2023/01/04 16:55:15;;;;;;;1.60;0.47;;;14.10;99.90;;;;;;6314876;22;20350;-71
2023/01/04 16:57:41;;;;;;;1.20;0.50;;;14.00;99.90;;;;;;6315134;22;20377;-71
2023/01/04 17:00:07;;;;;;;1.55;0.50;;;14.00;99.90;;;;;;6341022;22;20010;-71
2023/01/04 17:02:33;;;;;;;1.17;0.52;;;14.00;99.90;;;;;;6315352;22;20003;-70
2023/01/04 17:04:59;;;;;;;2.13;0.60;;;14.00;99.90;;;;;;6343236;22;20084;-70
2023/01/04 17:07:31;;;;;;;1.63;0.70;;;14.00;99.90;;;;;;6315737;22;20007;-70
2023/01/04 17:09:58;;;;;;;1.23;0.52;;;14.00;99.90;;;;;;6343384;22;20049;-70
2023/01/04 17:12:23;;;;;;;1.60;0.70;;;14.00;99.90;;;;;;6343472;22;20081;-71
2023/01/04 17:14:49;;;;;;;1.13;0.60;;;14.00;99.90;;;;;;6343327;22;20057;-72
2023/01/04 17:17:15;;;;;;;1.00;0.50;;;14.00;99.90;;;;;;6343117;22;20003;-72
2023/01/04 17:19:41;;;;;;;1.80;0.63;;;14.00;99.90;;;;;;6342890;22;20006;-72
2023/01/04 17:22:07;;;;;;;0.95;0.60;;;14.00;99.90;;;;;;6343501;22;20070;-72
2023/01/04 17:24:32;;;;;;;1.60;0.60;;;14.00;99.90;;;;;;6343310;22;20360;-72
2023/01/04 17:26:58;;;;;;;1.48;0.52;;;14.00;99.90;;;;;;6344322;22;20419;-70
2023/01/04 17:29:23;;;;;;;1.33;0.60;;;14.00;99.90;;;;;;6345074;22;20423;-72
2023/01/04 17:31:49;;;;;;;1.40;0.65;;;14.00;99.90;;;;;;6345244;22;20005;-72
2023/01/04 17:34:18;;;;;;;1.90;0.75;;;14.00;99.90;;;;;;6344399;22;20013;-72
2023/01/04 17:36:44;;;;;;;1.65;0.73;;;14.00;99.90;;;;;;6317277;22;20439;-71
2023/01/04 17:39:09;;;;;;;1.52;0.70;;;14.00;99.90;;;;;;6344996;22;20064;-72
2023/01/04 17:41:35;;;;;;;0.85;0.47;;;14.00;99.90;;;;;;6345078;22;20379;-72
2023/01/04 17:44:04;;;;;;;0.98;0.60;;;14.00;99.90;;;;;;6344785;22;20014;-71
2023/01/04 17:46:32;;;;;;;1.35;0.80;;;14.00;99.90;;;;;;6344921;22;20052;-72
2023/01/04 17:49:01;;;;;;;1.00;0.60;;;14.00;99.90;;;;;;6344758;22;20054;-71
2023/01/04 17:51:28;;;;;;;1.58;0.82;;;14.00;99.90;;;;;;6344664;22;20002;-72
2023/01/04 17:53:56;;;;;;;1.90;0.70;;;14.00;99.90;;;;;;6344923;22;20336;-71
2023/01/04 17:56:23;;;;;;;1.80;0.70;;;14.00;99.90;;;;;;6317244;22;20003;-72
2023/01/04 17:58:49;;;;;;;1.23;0.60;;;14.00;99.90;;;;;;6344751;22;20070;-72
2023/01/04 18:01:21;;;;;;;2.58;0.70;;;14.00;99.90;;;;;;6316901;22;20007;-71
2023/01/04 18:03:49;;;;;;;1.50;0.70;;;14.00;99.90;;;;;;6343985;22;19999;-72
2023/01/04 18:06:16;;;;;;;1.52;0.73;;;14.00;99.90;;;;;;6344847;22;20002;-73
2023/01/04 18:08:42;;;;;;;1.17;0.57;;;14.00;99.90;;;;;;6344769;22;20025;-73
2023/01/04 18:11:08;;;;;;;2.22;0.90;;;14.00;99.90;;;;;;6343264;22;20003;-73
2023/01/04 18:13:36;;;;;;;2.13;0.60;;;14.00;99.90;;;;;;6343846;22;20077;-73
2023/01/04 18:16:05;;;;;;;1.75;0.73;;;14.00;99.90;;;;;;6315794;22;20029;-73
2023/01/04 18:18:31;;;;;;;1.60;0.73;;;14.00;99.90;;;;;;6315212;22;20003;-73
2023/01/04 18:21:06;;;;;;;1.67;0.73;;;14.00;99.90;;;;;;6343217;22;20080;-73
2023/01/04 18:23:31;;;;;;;1.05;0.60;;;14.00;99.90;;;;;;6315547;22;20005;-73
2023/01/04 18:26:00;;;;;;;1.77;0.68;;;14.00;99.90;;;;;;6315791;22;20002;-73
2023/01/04 18:28:26;;;;;;;2.05;0.80;;;14.00;99.90;;;;;;6343293;22;20601;-73
2023/01/04 18:30:52;;;;;;;2.00;0.60;;;14.00;99.90;;;;;;6315431;22;20081;-73
2023/01/04 18:33:17;;;;;;;1.40;0.60;;;14.00;99.90;;;;;;6343230;22;19999;-73
2023/01/04 18:35:43;;;;;;;2.30;0.93;;;14.00;99.90;;;;;;6342867;22;19998;-73
2023/01/04 18:38:09;;;;;;;1.38;0.80;;;14.00;99.90;;;;;;6315444;22;19998;-73
2023/01/04 18:40:37;;;;;;;1.55;0.70;;;13.90;99.90;;;;;;6315452;22;19998;-73
2023/01/04 18:43:03;;;;;;;1.55;0.70;;;13.90;99.90;;;;;;6343370;22;20057;-74
2023/01/04 18:45:28;;;;;;;2.97;0.70;;;13.90;99.90;;;;;;6344609;22;19994;-72
2023/01/04 18:47:54;;;;;;;2.33;0.60;;;13.90;99.90;;;;;;6344364;22;20001;-70
2023/01/04 18:50:19;;;;;;;1.35;0.75;;;13.90;99.90;;;;;;6344261;22;20003;-71
2023/01/04 18:52:45;;;;;;;2.75;0.98;;;13.90;99.90;;;;;;6344440;22;20040;-71
2023/01/04 18:55:11;;;;;;;2.10;0.60;;;13.90;99.90;;;;;;6344306;22;20494;-71
2023/01/04 18:57:38;;;;;;;1.23;0.52;;;13.90;99.90;;;;;;6344356;22;20071;-73
2023/01/04 19:00:06;;;;;;;0.82;0.50;;;13.90;99.90;;;;;;6316541;22;20014;-71
2023/01/04 19:02:31;;;;;;;1.27;0.73;;;13.90;99.90;;;;;;6315951;22;20005;-71
2023/01/04 19:04:57;;;;;;;2.13;0.60;;;14.00;99.90;;;;;;6343988;22;20381;-71
2023/01/04 19:07:24;;;;;;;1.80;0.80;;;;;;;;;;6316374;22;19999;-70
2023/01/04 19:09:50;;;;;;;1.52;0.80;;;13.60;99.90;;;;;;6344314;22;19998;-72
2023/01/04 19:12:16;;;;;;;1.42;0.70;;;;;;;;;;6344142;22;20009;-71
2023/01/04 19:14:42;;;;;;;1.40;0.60;;;13.90;99.90;;;;;;6343135;22;20010;-72
2023/01/04 19:17:08;;;;;;;2.05;0.80;;;13.90;99.90;;;;;;6342691;22;20002;-71
2023/01/04 19:19:34;;;;;;;1.17;0.70;;;14.00;99.90;;;;;;6342451;22;19999;-72
2023/01/04 19:22:00;;;;;;;1.13;0.60;;;13.90;99.90;;;;;;6342930;22;20009;-74
2023/01/04 19:24:26;;;;;;;1.00;0.70;;;14.00;99.90;;;;;;6342808;22;20003;-74
2023/01/04 19:26:53;;;;;;;1.13;0.57;;;13.90;99.90;;;;;;6343288;22;20003;-74
2023/01/04 19:29:20;;;;;;;0.82;0.50;;;13.90;99.90;;;;;;6343593;22;20056;-74
2023/01/04 19:31:45;;;;;;;2.17;0.80;;;13.90;99.90;;;;;;6342833;22;20014;-73
2023/01/04 19:34:11;;;;;;;1.63;0.80;;;13.90;99.90;;;;;;6315986;22;20007;-73
2023/01/04 19:36:37;;;;;;;1.17;0.60;;;13.90;99.90;;;;;;6343769;22;20452;-73
2023/01/04 19:39:06;;;;;;;2.50;0.70;;;13.90;99.90;;;;;;6343662;22;20009;-72
2023/01/04 19:41:33;;;;;;;1.08;0.60;;;13.90;99.90;;;;;;6343773;22;20419;-73
2023/01/04 19:44:01;;;;;;;0.93;0.52;;;13.90;99.90;;;;;;6343408;22;20015;-73
2023/01/04 19:46:27;;;;;;;1.58;0.60;;;13.90;99.90;;;;;;6341834;22;20424;-73
2023/01/04 19:48:53;;;;;;;2.15;0.70;;;13.90;99.90;;;;;;6341817;22;20025;-72
2023/01/04 19:51:19;;;;;;;0.98;0.55;;;13.80;99.90;;;;;;6341297;22;20370;-73
2023/01/04 19:53:45;;;;;;;1.77;0.93;;;13.90;99.90;;;;;;6314506;22;20015;-72
2023/01/04 19:56:12;;;;;;;2.47;0.70;;;13.80;99.90;;;;;;6314069;22;20005;-72
2023/01/04 19:58:38;;;;;;;1.83;0.60;;;13.80;99.90;;;;;;6342411;22;19999;-72
2023/01/04 20:01:04;;;;;;;1.55;0.95;;;13.80;99.90;;;;;;6342308;22;19999;-72
2023/01/04 20:03:31;;;;;;;1.30;0.63;;;13.80;99.90;;;;;;6341961;22;19995;-72
2023/01/04 20:06:02;;;;;;;0.90;0.68;;;13.80;99.90;;;;;;6342296;22;20009;-73
2023/01/04 20:08:28;;;;;;;1.67;0.95;;;13.80;99.90;;;;;;6342596;22;20082;-73
2023/01/04 20:10:55;;;;;;;1.90;0.80;;;13.80;99.90;;;;;;6342481;22;20410;-72
2023/01/04 20:13:21;;;;;;;2.33;1.00;;;13.80;99.90;;;;;;6315108;22;20086;-72
2023/01/04 20:15:47;;;;;;;1.13;0.80;;;13.80;99.90;;;;;;6342524;22;19995;-72
2023/01/04 20:18:12;;;;;;;1.63;0.73;;;13.80;99.90;;;;;;6342180;22;20056;-73
2023/01/04 20:20:45;;;;;;;1.92;0.80;;;13.80;99.90;;;;;;6342236;22;20076;-72
2023/01/04 20:23:12;;;;;;;1.83;0.88;;;13.80;99.90;;;;;;6342375;22;20331;-72
2023/01/04 20:25:39;;;;;;;1.50;0.77;;;13.80;99.90;;;;;;6314359;22;20459;-72
2023/01/04 20:28:05;;;;;;;1.10;0.80;;;13.80;99.90;;;;;;6314571;22;20033;-72
2023/01/04 20:30:30;;;;;;;1.00;0.50;;;13.90;99.90;;;;;;6342265;22;20003;-72
2023/01/04 20:32:56;;;;;;;1.10;0.60;;;13.80;99.90;;;;;;6315139;22;20007;-72
2023/01/04 20:35:23;;;;;;;1.10;0.70;;;13.90;99.90;;;;;;6341128;22;20007;-73
2023/01/04 20:37:53;;;;;;;2.00;0.77;;;13.90;99.90;;;;;;6342957;22;20081;-72
2023/01/04 20:40:19;;;;;;;1.02;0.70;;;13.90;99.90;;;;;;6343436;22;20431;-72
2023/01/04 20:45:29;;;;;;;1.75;0.88;;;13.80;99.90;;;;;;6343147;22;20077;-72
2023/01/04 20:47:55;;;;;;;1.25;0.65;;;13.90;99.90;;;;;;6342060;22;20399;-72